Time;durP1;ratioP1;P1;durP2;ratioP2;P2;SDS_P1;SDS_P2;PMS_P1;PMS_P2;Temp;Humidity;BMP_temperature;BMP_pressure;BME280_temperature;BME280_humidity;BME280_pressure;Samples;Min_cycle;Max_cycle;Signal;HPM_P1;HPM_P2
2024/04/17 00:00:35;;;;;;;0.40;0.37;;;14.40;49.30;14.90;96684.00;;;;5350405;26;20364;-58
2024/04/17 00:03:02;;;;;;;0.30;0.30;;;14.40;49.30;14.90;96680.00;;;;5351626;26;20361;-58
2024/04/17 00:05:30;;;;;;;0.30;0.30;;;14.40;49.40;14.90;96684.00;;;;5351694;26;20861;-58
2024/04/17 00:07:56;;;;;;;0.30;0.30;;;14.40;49.40;14.90;96677.00;;;;5351348;26;20337;-57
2024/04/17 00:10:27;;;;;;;0.37;0.37;;;14.40;49.40;14.90;96675.00;;;;5350514;26;20256;-58
2024/04/17 00:12:53;;;;;;;0.40;0.40;;;14.40;49.40;14.90;96672.00;;;;5351494;26;20303;-58
2024/04/17 00:15:22;;;;;;;0.40;0.40;;;14.40;49.40;14.90;96670.00;;;;5351219;26;20340;-57
2024/04/17 00:17:48;;;;;;;0.40;0.40;;;14.40;49.40;14.90;96665.00;;;;5351136;26;20298;-58
2024/04/17 00:20:17;;;;;;;0.40;0.40;;;14.40;49.40;14.90;96660.00;;;;5384691;26;20235;-58
2024/04/17 00:22:43;;;;;;;0.40;0.40;;;14.40;49.50;14.90;96662.00;;;;5383935;26;20346;-58
2024/04/17 00:25:11;;;;;;;0.47;0.47;;;14.40;49.50;14.90;96651.00;;;;5380430;26;20243;-58
2024/04/17 00:27:40;;;;;;;0.33;0.33;;;14.40;49.40;14.90;96653.00;;;;5382138;26;20673;-57
2024/04/17 00:30:10;;;;;;;0.63;0.30;;;14.40;49.50;14.90;96652.00;;;;5381392;26;20235;-58
2024/04/17 00:32:36;;;;;;;0.40;0.40;;;14.40;49.50;14.90;96656.00;;;;5382278;26;20289;-58
2024/04/17 00:35:05;;;;;;;0.30;0.30;;;14.40;49.50;14.90;96657.00;;;;5380348;26;20355;-58
2024/04/17 00:37:31;;;;;;;0.40;0.40;;;14.40;49.50;14.90;96650.00;;;;5381991;26;20854;-57
2024/04/17 00:39:59;;;;;;;0.30;0.30;;;14.40;49.50;14.90;96646.00;;;;5379752;26;20234;-57
2024/04/17 00:42:25;;;;;;;0.33;0.33;;;14.40;49.50;14.90;96648.00;;;;5347072;26;20311;-58
2024/04/17 00:44:57;;;;;;;0.40;0.40;;;14.40;49.50;14.90;96642.00;;;;5347129;26;20345;-58
2024/04/17 00:47:23;;;;;;;0.40;0.40;;;14.40;49.50;14.90;96648.00;;;;5346979;26;20229;-58
2024/04/17 00:49:53;;;;;;;0.40;0.40;;;14.40;49.50;14.80;96652.00;;;;5346592;26;20349;-57
2024/04/17 00:52:20;;;;;;;0.87;0.50;;;14.40;49.50;14.80;96667.00;;;;5346934;26;20377;-58
2024/04/17 00:54:49;;;;;;;0.40;0.40;;;14.40;49.50;14.80;96658.00;;;;5346956;26;20308;-57
2024/04/17 00:57:16;;;;;;;0.40;0.37;;;14.40;49.50;14.80;96652.00;;;;5380333;26;20294;-57
2024/04/17 00:59:45;;;;;;;0.70;0.40;;;14.30;49.60;14.80;96652.00;;;;5381011;26;20825;-58
2024/04/17 01:02:14;;;;;;;0.40;0.40;;;14.30;49.50;14.80;96655.00;;;;5381881;26;20373;-58
2024/04/17 01:04:43;;;;;;;0.40;0.40;;;14.30;49.60;14.80;96657.00;;;;5379457;26;20235;-57
2024/04/17 01:07:10;;;;;;;1.07;0.40;;;14.30;49.60;14.80;96655.00;;;;5346730;26;20292;-57
2024/04/17 01:09:38;;;;;;;0.40;0.40;;;14.30;49.60;14.80;96650.00;;;;5345928;26;20243;-57
2024/04/17 01:12:05;;;;;;;0.30;0.30;;;14.30;50.30;14.80;96647.00;;;;5377266;26;20332;-57
2024/04/17 01:14:34;;;;;;;0.30;0.30;;;14.30;49.60;14.80;96646.00;;;;5381565;26;20796;-57
2024/04/17 01:17:00;;;;;;;0.30;0.30;;;14.40;49.60;14.80;96644.00;;;;5381620;26;21163;-58
2024/04/17 01:19:32;;;;;;;0.43;0.43;;;14.30;49.60;14.80;96650.00;;;;5365695;26;20246;-58
2024/04/17 01:21:58;;;;;;;0.40;0.40;;;14.30;49.60;14.80;96639.00;;;;5346593;26;20375;-57
2024/04/17 01:24:30;;;;;;;0.40;0.40;;;14.30;49.60;14.80;96644.00;;;;5346645;26;20248;-58
2024/04/17 01:26:55;;;;;;;0.30;0.30;;;14.30;49.60;14.80;96648.00;;;;5375118;26;20376;-58
2024/04/17 01:29:24;;;;;;;0.30;0.30;;;14.30;49.60;14.80;96636.00;;;;5380500;26;20249;-58
2024/04/17 01:31:50;;;;;;;0.40;0.40;;;14.30;49.60;14.80;96646.00;;;;5381194;26;20347;-57
2024/04/17 01:34:19;;;;;;;0.30;0.30;;;14.30;49.60;14.80;96645.00;;;;5355464;26;20244;-57
2024/04/17 01:36:45;;;;;;;0.30;0.30;;;14.30;49.60;14.80;96647.00;;;;5346413;26;20330;-57
2024/04/17 01:39:13;;;;;;;0.33;0.33;;;14.30;49.60;14.80;96645.00;;;;5345502;26;20243;-57
2024/04/17 01:41:42;;;;;;;0.50;0.50;;;14.30;49.70;14.80;96650.00;;;;5371235;26;21096;-57
2024/04/17 01:44:11;;;;;;;0.40;0.40;;;14.30;49.70;14.80;96644.00;;;;5380908;26;20277;-58
2024/04/17 01:46:37;;;;;;;0.30;0.30;;;14.30;49.70;14.80;96644.00;;;;5381171;26;20298;-58
2024/04/17 01:49:05;;;;;;;0.40;0.40;;;14.30;49.70;14.80;96643.00;;;;5371291;26;20239;-58
2024/04/17 01:51:31;;;;;;;0.40;0.40;;;14.30;49.60;14.80;96648.00;;;;5345921;26;20717;-57
2024/04/17 01:54:00;;;;;;;0.30;0.30;;;14.30;49.70;14.80;96657.00;;;;5346212;26;20242;-58
2024/04/17 01:56:26;;;;;;;0.30;0.30;;;14.30;49.70;14.80;96650.00;;;;5346312;26;20309;-57
2024/04/17 01:58:57;;;;;;;0.33;0.33;;;14.30;49.70;14.80;96651.00;;;;5345158;26;20231;-58
2024/04/17 02:01:23;;;;;;;0.30;0.30;;;14.30;49.70;14.80;96657.00;;;;5345831;26;20317;-58
2024/04/17 02:03:52;;;;;;;0.30;0.30;;;14.30;49.70;14.80;96651.00;;;;5346353;26;20753;-58
2024/04/17 02:06:18;;;;;;;0.50;0.50;;;14.30;49.70;14.70;96657.00;;;;5346040;26;20287;-58
2024/04/17 02:08:46;;;;;;;0.40;0.40;;;14.30;49.70;14.70;96661.00;;;;5345052;26;20230;-57
2024/04/17 02:11:12;;;;;;;0.30;0.30;;;14.30;49.70;14.70;96659.00;;;;5363436;26;20258;-57
2024/04/17 02:13:41;;;;;;;0.30;0.30;;;14.30;49.70;14.70;96660.00;;;;5380778;26;20239;-58
2024/04/17 02:16:10;;;;;;;0.30;0.30;;;14.20;49.60;14.70;96666.00;;;;5380588;26;20783;-58
2024/04/17 02:18:38;;;;;;;0.30;0.30;;;14.20;49.60;14.70;96666.00;;;;5367752;26;20293;-58
2024/04/17 02:21:05;;;;;;;0.30;0.30;;;14.20;49.60;14.70;96664.00;;;;5345686;26;21138;-57
2024/04/17 02:23:33;;;;;;;0.40;0.40;;;14.20;49.60;14.70;96658.00;;;;5345691;26;20294;-58
2024/04/17 02:25:59;;;;;;;0.30;0.30;;;14.20;49.60;14.70;96660.00;;;;5360434;26;20701;-57
2024/04/17 02:28:28;;;;;;;0.30;0.30;;;14.20;49.60;14.70;96661.00;;;;5379670;26;20237;-57
2024/04/17 02:30:54;;;;;;;0.43;0.30;;;14.30;49.80;14.70;96669.00;;;;5380554;26;20238;-58
2024/04/17 02:33:25;;;;;;;0.30;0.30;;;14.20;49.70;14.70;96665.00;;;;5380495;26;20359;-58
2024/04/17 02:35:51;;;;;;;0.30;0.30;;;14.30;49.80;14.70;96665.00;;;;5361315;26;20309;-58
2024/04/17 02:38:20;;;;;;;0.40;0.40;;;14.20;49.70;14.70;96669.00;;;;5345564;26;20236;-57
2024/04/17 02:40:46;;;;;;;0.30;0.30;;;14.20;49.70;14.70;96670.00;;;;5356999;26;20257;-58
2024/04/17 02:43:14;;;;;;;0.33;0.33;;;14.20;49.70;14.70;96673.00;;;;5380320;26;20234;-58
2024/04/17 02:45:40;;;;;;;0.40;0.40;;;14.20;49.70;14.70;96666.00;;;;5379447;26;20372;-57
2024/04/17 02:48:10;;;;;;;0.43;0.43;;;14.20;49.70;14.70;96665.00;;;;5380049;26;20276;-57
2024/04/17 02:50:41;;;;;;;0.50;0.50;;;14.20;49.70;14.70;96665.00;;;;5377969;26;20383;-57
2024/04/17 02:53:10;;;;;;;0.40;0.40;;;14.20;49.70;14.70;96668.00;;;;5380235;26;20362;-58
2024/04/17 02:55:36;;;;;;;0.40;0.40;;;14.20;49.70;14.70;96663.00;;;;5378705;26;20634;-58
2024/04/17 02:58:05;;;;;;;0.30;0.30;;;14.20;49.70;14.70;96672.00;;;;5380059;26;20237;-58
2024/04/17 03:00:31;;;;;;;0.30;0.30;;;14.20;49.70;14.70;96670.00;;;;5379304;26;20310;-57
2024/04/17 03:03:04;;;;;;;0.50;0.30;;;14.20;49.70;14.70;96666.00;;;;5378491;26;20242;-57
2024/04/17 03:05:33;;;;;;;0.40;0.40;;;14.20;49.70;14.70;96668.00;;;;5345090;26;20623;-58
2024/04/17 03:08:04;;;;;;;0.30;0.30;;;14.20;49.70;14.70;96667.00;;;;5344980;26;20609;-58
2024/04/17 03:10:30;;;;;;;0.27;0.27;;;14.20;49.70;14.70;96669.00;;;;5344492;26;20297;-58
2024/04/17 03:12:59;;;;;;;0.40;0.40;;;14.20;49.70;14.70;96666.00;;;;5344848;26;20331;-58
2024/04/17 03:15:25;;;;;;;0.40;0.40;;;14.20;49.70;14.70;96674.00;;;;5344971;26;20294;-57
2024/04/17 03:17:53;;;;;;;0.40;0.40;;;14.20;49.70;14.70;96671.00;;;;5345012;26;20239;-58
2024/04/17 03:20:20;;;;;;;0.37;0.37;;;14.20;49.80;14.70;96669.00;;;;5364483;26;20305;-58
2024/04/17 03:22:48;;;;;;;0.47;0.47;;;14.10;49.70;14.70;96674.00;;;;5379776;26;20571;-58
2024/04/17 03:25:17;;;;;;;0.30;0.30;;;14.20;49.70;14.60;96673.00;;;;5374511;26;20294;-58
2024/04/17 03:27:45;;;;;;;0.30;0.30;;;14.20;49.80;14.60;96674.00;;;;5344784;26;20310;-58
2024/04/17 03:30:12;;;;;;;0.40;0.40;;;14.20;49.80;14.60;96672.00;;;;5343723;26;20283;-58
2024/04/17 03:32:40;;;;;;;0.40;0.40;;;14.20;49.80;14.60;96669.00;;;;5344431;26;20230;-58
2024/04/17 03:35:08;;;;;;;0.30;0.30;;;14.20;49.80;14.60;96668.00;;;;5376135;26;20316;-58
2024/04/17 03:37:36;;;;;;;0.30;0.30;;;14.20;49.80;14.60;96673.00;;;;5379469;26;20275;-58
2024/04/17 03:40:06;;;;;;;0.37;0.37;;;14.10;49.80;14.60;96675.00;;;;5375812;26;20356;-58
2024/04/17 03:42:37;;;;;;;0.40;0.40;;;14.20;49.80;14.60;96672.00;;;;5344518;26;20301;-58
2024/04/17 03:45:06;;;;;;;0.40;0.40;;;14.10;49.80;14.60;96671.00;;;;5344631;26;20344;-58
2024/04/17 03:47:37;;;;;;;0.30;0.30;;;14.10;49.90;14.60;96672.00;;;;5344156;26;20266;-57
2024/04/17 03:50:07;;;;;;;0.40;0.40;;;14.10;49.80;14.60;96682.00;;;;5371970;26;20364;-58
2024/04/17 03:52:33;;;;;;;0.40;0.40;;;14.10;49.80;14.60;96688.00;;;;5379258;26;20834;-58
2024/04/17 03:55:02;;;;;;;0.27;0.27;;;14.10;49.80;14.60;96693.00;;;;5377338;26;20250;-57
2024/04/17 03:57:28;;;;;;;0.30;0.30;;;14.10;49.90;14.60;96683.00;;;;5345256;26;20305;-57
2024/04/17 03:59:59;;;;;;;0.50;0.50;;;14.10;49.90;14.60;96689.00;;;;5346866;26;20340;-58
2024/04/17 04:02:25;;;;;;;0.30;0.30;;;14.10;49.90;14.60;96693.00;;;;5347411;26;20309;-58
2024/04/17 04:04:54;;;;;;;0.27;0.27;;;14.10;49.80;14.60;96685.00;;;;5379243;26;20257;-58
2024/04/17 04:07:20;;;;;;;0.30;0.30;;;14.10;49.90;14.60;96700.00;;;;5382551;26;20289;-57
2024/04/17 04:09:49;;;;;;;0.30;0.30;;;14.10;50.00;14.60;96705.00;;;;5381735;26;20562;-57
2024/04/17 04:12:15;;;;;;;0.30;0.30;;;14.10;49.90;14.60;96703.00;;;;5348119;26;20789;-58
2024/04/17 04:14:43;;;;;;;0.20;0.20;;;14.10;49.90;14.60;96703.00;;;;5347380;26;20349;-58
2024/04/17 04:17:13;;;;;;;0.30;0.30;;;14.10;50.00;14.60;96703.00;;;;5347437;26;20618;-58
2024/04/17 04:19:41;;;;;;;0.37;0.37;;;14.10;49.90;14.60;96708.00;;;;5358990;26;20348;-58
2024/04/17 04:22:07;;;;;;;0.40;0.40;;;14.10;49.90;14.60;96708.00;;;;5382439;26;20307;-58
2024/04/17 04:24:36;;;;;;;0.30;0.30;;;14.10;49.90;14.60;96714.00;;;;5382469;26;20337;-58
2024/04/17 04:27:02;;;;;;;0.30;0.30;;;14.10;50.00;14.60;96716.00;;;;5350855;26;20254;-57
2024/04/17 04:29:31;;;;;;;0.30;0.30;;;14.10;50.00;14.60;96717.00;;;;5346435;26;20302;-58
2024/04/17 04:31:59;;;;;;;0.40;0.40;;;14.10;50.00;14.60;96723.00;;;;5347268;26;20337;-58
2024/04/17 04:34:28;;;;;;;0.40;0.40;;;14.10;50.00;14.60;96721.00;;;;5347930;26;20307;-58
2024/04/17 04:36:57;;;;;;;0.30;0.30;;;14.10;50.00;14.50;96727.00;;;;5347153;26;20235;-58
2024/04/17 04:39:23;;;;;;;0.30;0.30;;;14.10;50.00;14.60;96725.00;;;;5346343;26;20357;-58
2024/04/17 04:41:53;;;;;;;0.30;0.30;;;14.10;50.00;14.60;96723.00;;;;5373754;26;20259;-57
2024/04/17 04:44:19;;;;;;;0.40;0.40;;;14.00;49.90;14.50;96734.00;;;;5382018;26;20273;-58
2024/04/17 04:46:51;;;;;;;0.40;0.40;;;14.10;50.00;14.50;96729.00;;;;5382150;26;20235;-57
2024/04/17 04:49:17;;;;;;;0.40;0.40;;;14.10;50.00;14.50;96733.00;;;;5379365;26;20765;-58
2024/04/17 04:51:48;;;;;;;0.30;0.30;;;14.00;50.00;14.50;96731.00;;;;5346962;26;20254;-58
2024/04/17 04:54:14;;;;;;;0.43;0.43;;;14.10;50.10;14.50;96743.00;;;;5347062;26;20802;-58
2024/04/17 04:56:43;;;;;;;0.37;0.37;;;14.00;49.90;14.50;96739.00;;;;5371443;26;20341;-58
2024/04/17 04:59:09;;;;;;;0.40;0.40;;;14.00;49.90;14.50;96749.00;;;;5380986;26;20229;-58
2024/04/17 05:01:38;;;;;;;0.27;0.27;;;14.00;49.90;14.50;96751.00;;;;5381778;26;20290;-57
2024/04/17 05:04:04;;;;;;;0.40;0.40;;;14.00;50.00;14.50;96746.00;;;;5381747;26;20280;-58
2024/04/17 05:06:34;;;;;;;0.40;0.40;;;14.00;50.00;14.50;96747.00;;;;5349851;26;20238;-58
2024/04/17 05:09:02;;;;;;;0.30;0.30;;;14.10;50.10;14.50;96759.00;;;;5345209;26;20229;-58
2024/04/17 05:11:31;;;;;;;0.47;0.47;;;14.10;50.10;14.50;96765.00;;;;5369026;26;20245;-57
2024/04/17 05:13:57;;;;;;;0.37;0.37;;;14.10;50.10;14.50;96762.00;;;;5381655;26;20779;-57
2024/04/17 05:16:26;;;;;;;0.30;0.30;;;14.10;50.10;14.50;96749.00;;;;5381485;26;20340;-57
2024/04/17 05:18:52;;;;;;;0.40;0.40;;;14.10;50.10;14.50;96753.00;;;;5362753;26;20300;-58
2024/04/17 05:21:20;;;;;;;0.30;0.30;;;14.10;50.10;14.50;96748.00;;;;5346565;26;20347;-58
2024/04/17 05:23:46;;;;;;;0.50;0.50;;;14.10;50.10;14.50;96752.00;;;;5346648;26;20376;-58
2024/04/17 05:26:18;;;;;;;0.50;0.50;;;14.00;50.00;14.50;96755.00;;;;5364632;26;20248;-57
2024/04/17 05:28:44;;;;;;;0.30;0.30;;;14.00;50.00;14.50;96762.00;;;;5380746;26;20364;-57
2024/04/17 05:31:12;;;;;;;0.40;0.40;;;14.00;50.00;14.50;96757.00;;;;5381189;26;20257;-57
2024/04/17 05:33:38;;;;;;;0.40;0.40;;;14.00;50.00;14.50;96759.00;;;;5381339;26;20376;-58
2024/04/17 05:36:07;;;;;;;0.40;0.40;;;14.10;50.00;14.60;96763.00;;;;5379934;26;20645;-58
2024/04/17 05:38:33;;;;;;;0.40;0.40;;;14.10;50.00;14.60;96757.00;;;;5380616;26;20349;-58
2024/04/17 05:41:02;;;;;;;0.53;0.53;;;14.10;50.00;14.60;96761.00;;;;5379484;26;20355;-58
2024/04/17 05:43:31;;;;;;;0.50;0.50;;;14.20;49.90;14.60;96767.00;;;;5381303;26;20363;-58
2024/04/17 05:45:59;;;;;;;0.30;0.30;;;14.20;49.90;14.60;96762.00;;;;5381229;26;20301;-57
2024/04/17 05:48:25;;;;;;;0.40;0.40;;;14.20;49.80;14.70;96762.00;;;;5365755;26;20873;-58
2024/04/17 05:50:54;;;;;;;0.30;0.30;;;14.20;49.70;14.70;96758.00;;;;5346066;26;20254;-57
2024/04/17 05:53:20;;;;;;;0.40;0.40;;;14.20;49.70;14.70;96768.00;;;;5346211;26;20697;-57
2024/04/17 05:55:48;;;;;;;0.30;0.30;;;14.30;49.80;14.70;96767.00;;;;5358277;26;20241;-58
2024/04/17 05:58:14;;;;;;;0.30;0.30;;;14.30;49.70;14.70;96766.00;;;;5381184;26;20285;-58
2024/04/17 06:00:45;;;;;;;0.40;0.40;;;14.30;49.70;14.70;96765.00;;;;5380014;26;20245;-57
2024/04/17 06:03:11;;;;;;;0.30;0.30;;;14.30;49.70;14.80;96766.00;;;;5380955;26;20285;-58
2024/04/17 06:05:40;;;;;;;0.40;0.40;;;14.30;49.60;14.80;96761.00;;;;5368193;26;20249;-58
2024/04/17 06:08:07;;;;;;;0.30;0.30;;;14.30;49.60;14.80;96761.00;;;;5345942;26;20287;-58
2024/04/17 06:10:35;;;;;;;0.50;0.50;;;14.30;49.50;14.80;96760.00;;;;5345348;26;20238;-58
2024/04/17 06:13:01;;;;;;;0.37;0.37;;;14.30;49.50;14.80;96761.00;;;;5346067;26;20353;-58
2024/04/17 06:15:30;;;;;;;0.30;0.30;;;14.40;49.40;14.80;96764.00;;;;5345763;26;20246;-57
2024/04/17 06:17:59;;;;;;;0.40;0.40;;;14.40;49.40;14.80;96762.00;;;;5347383;26;21062;-57
2024/04/17 06:20:28;;;;;;;0.40;0.40;;;14.40;49.40;14.80;96763.00;;;;5378921;26;20838;-58
2024/04/17 06:22:54;;;;;;;0.40;0.40;;;14.40;49.30;14.80;96761.00;;;;5380293;26;20306;-58
2024/04/17 06:25:22;;;;;;;0.30;0.30;;;14.40;49.30;14.90;96772.00;;;;5378572;26;20727;-58
2024/04/17 06:27:48;;;;;;;0.30;0.30;;;14.40;49.20;14.90;96764.00;;;;5380612;26;20230;-58
2024/04/17 06:30:17;;;;;;;0.33;0.33;;;14.50;49.20;14.90;96765.00;;;;5379513;26;20243;-58
2024/04/17 06:32:43;;;;;;;0.30;0.30;;;14.50;49.20;14.90;96771.00;;;;5380358;26;20243;-58
2024/04/17 06:35:14;;;;;;;0.30;0.30;;;14.50;49.20;14.90;96772.00;;;;5379836;26;20338;-58
2024/04/17 06:37:40;;;;;;;0.40;0.40;;;14.50;49.10;14.90;96777.00;;;;5380565;26;20286;-58
2024/04/17 06:40:10;;;;;;;0.33;0.33;;;14.40;49.00;14.90;96777.00;;;;5377676;26;20325;-58
2024/04/17 06:42:39;;;;;;;0.80;0.33;;;14.50;49.10;14.90;96778.00;;;;5380366;26;20292;-58
2024/04/17 06:45:06;;;;;;;0.50;0.50;;;14.40;49.10;14.80;96781.00;;;;5380442;26;20717;-58
2024/04/17 06:47:35;;;;;;;0.53;0.30;;;14.40;49.10;14.80;96776.00;;;;5378780;26;20268;-57
2024/04/17 06:50:01;;;;;;;0.30;0.30;;;14.40;49.20;14.80;96773.00;;;;5344489;26;20361;-58
2024/04/17 06:52:32;;;;;;;0.30;0.30;;;14.40;49.20;14.80;96773.00;;;;5345118;26;20310;-58
2024/04/17 06:54:58;;;;;;;0.40;0.40;;;14.40;49.20;14.90;96776.00;;;;5345452;26;20289;-58
2024/04/17 06:57:27;;;;;;;0.40;0.40;;;14.40;49.10;14.90;96778.00;;;;5345282;26;20234;-58
2024/04/17 06:59:53;;;;;;;0.40;0.40;;;14.50;49.20;14.90;96776.00;;;;5344300;26;20299;-57
2024/04/17 07:02:21;;;;;;;0.40;0.40;;;14.50;49.00;15.00;96773.00;;;;5345107;26;20939;-57
2024/04/17 07:04:50;;;;;;;0.40;0.40;;;14.60;49.00;15.00;96771.00;;;;5352068;26;20293;-58
2024/04/17 07:07:16;;;;;;;0.23;0.23;;;14.60;48.80;15.00;96779.00;;;;5379924;26;20293;-58
2024/04/17 07:09:47;;;;;;;0.40;0.40;;;14.60;48.80;15.00;96775.00;;;;5379071;26;20238;-58
2024/04/17 07:12:13;;;;;;;0.30;0.30;;;14.60;48.70;15.00;96787.00;;;;5378160;26;20313;-58
2024/04/17 07:14:42;;;;;;;0.30;0.30;;;14.60;48.80;15.00;96785.00;;;;5379918;26;20719;-58
2024/04/17 07:17:09;;;;;;;0.50;0.50;;;14.60;48.80;15.00;96786.00;;;;5379859;26;20355;-58
2024/04/17 07:19:38;;;;;;;0.40;0.40;;;14.50;48.80;14.90;96787.00;;;;5363834;26;20249;-58
2024/04/17 07:22:04;;;;;;;0.30;0.30;;;14.50;48.90;14.90;96796.00;;;;5344783;26;20345;-58
2024/04/17 07:24:33;;;;;;;0.40;0.40;;;14.50;48.90;14.90;96795.00;;;;5344870;26;20235;-58
2024/04/17 07:27:05;;;;;;;0.40;0.40;;;14.40;48.90;14.90;96784.00;;;;5373876;26;20436;-58
2024/04/17 07:29:33;;;;;;;0.40;0.40;;;14.40;48.90;14.90;96791.00;;;;5379070;26;20281;-58
2024/04/17 07:32:02;;;;;;;0.30;0.30;;;14.40;48.90;14.90;96785.00;;;;5379814;26;20250;-58
2024/04/17 07:34:28;;;;;;;0.23;0.23;;;14.40;48.90;14.80;96781.00;;;;5358883;26;20355;-58
2024/04/17 07:36:56;;;;;;;0.30;0.30;;;14.40;49.00;14.80;96780.00;;;;5347796;26;20647;-58
2024/04/17 07:39:22;;;;;;;0.40;0.40;;;14.40;49.00;14.80;96776.00;;;;5347014;26;20287;-58
2024/04/17 07:41:52;;;;;;;0.57;0.43;;;14.30;49.10;14.80;96776.00;;;;5374407;26;20237;-58
2024/04/17 07:44:21;;;;;;;0.30;0.30;;;14.40;49.10;14.90;96776.00;;;;5382820;26;20301;-58
2024/04/17 07:46:49;;;;;;;0.40;0.40;;;14.50;49.10;14.90;96780.00;;;;5382872;26;20357;-57
2024/04/17 07:49:16;;;;;;;0.30;0.30;;;14.40;49.00;14.90;96785.00;;;;5375140;26;20235;-57
2024/04/17 07:51:45;;;;;;;0.30;0.30;;;14.50;49.00;14.90;96781.00;;;;5347793;26;20258;-57
2024/04/17 07:54:11;;;;;;;0.43;0.43;;;14.50;49.00;15.00;96782.00;;;;5347885;26;20292;-57
2024/04/17 07:56:39;;;;;;;0.40;0.40;;;14.50;48.90;14.90;96788.00;;;;5371717;26;20282;-57
2024/04/17 07:59:05;;;;;;;0.30;0.30;;;14.50;48.90;15.00;96788.00;;;;5381716;26;20287;-57
2024/04/17 08:01:37;;;;;;;0.30;0.30;;;14.50;48.80;14.90;96783.00;;;;5382573;26;20740;-58
2024/04/17 08:04:03;;;;;;;0.37;0.37;;;14.50;48.80;14.90;96788.00;;;;5381248;26;20609;-58
2024/04/17 08:06:31;;;;;;;0.40;0.40;;;14.50;48.90;14.90;96784.00;;;;5382503;26;20331;-58
2024/04/17 08:08:57;;;;;;;0.30;0.30;;;14.50;48.90;14.90;96782.00;;;;5381668;26;20299;-58
2024/04/17 08:11:26;;;;;;;0.30;0.30;;;14.50;48.90;14.90;96777.00;;;;5360144;26;20349;-58
2024/04/17 08:13:55;;;;;;;0.20;0.20;;;14.50;48.90;14.90;96789.00;;;;5347498;26;20753;-58
2024/04/17 08:16:21;;;;;;;0.30;0.30;;;14.50;48.90;14.90;96783.00;;;;5347441;26;20335;-58
2024/04/17 08:18:52;;;;;;;0.33;0.33;;;14.50;48.90;14.90;96786.00;;;;5346919;26;20270;-58
2024/04/17 08:21:18;;;;;;;0.30;0.30;;;14.50;48.90;15.00;96783.00;;;;5347311;26;20711;-57
2024/04/17 08:23:47;;;;;;;0.40;0.40;;;14.60;48.80;15.00;96785.00;;;;5347338;26;20244;-57
2024/04/17 08:26:13;;;;;;;0.23;0.23;;;14.60;48.70;15.00;96771.00;;;;5347701;26;20363;-58
2024/04/17 08:28:41;;;;;;;0.47;0.40;;;14.60;48.70;15.00;96780.00;;;;5346620;26;20242;-58
2024/04/17 08:31:07;;;;;;;0.30;0.30;;;14.60;48.70;15.00;96786.00;;;;5347088;26;20381;-58
2024/04/17 08:33:36;;;;;;;0.30;0.30;;;14.60;48.60;15.00;96780.00;;;;5347023;26;20244;-58
2024/04/17 08:36:05;;;;;;;0.50;0.50;;;14.60;48.60;15.00;96784.00;;;;5375138;26;20309;-58
2024/04/17 08:38:34;;;;;;;0.30;0.30;;;14.60;48.60;15.00;96785.00;;;;5381171;26;20307;-58
2024/04/17 08:41:00;;;;;;;0.40;0.40;;;14.60;48.60;15.00;96783.00;;;;5365424;26;20310;-58
2024/04/17 08:43:29;;;;;;;0.50;0.50;;;14.60;48.60;15.00;96793.00;;;;5346594;26;20613;-58
2024/04/17 08:45:56;;;;;;;0.40;0.40;;;14.50;48.60;15.00;96799.00;;;;5346638;26;20357;-58
2024/04/17 08:48:26;;;;;;;0.60;0.60;;;14.60;48.60;15.00;96793.00;;;;5347231;26;20721;-58
2024/04/17 08:50:54;;;;;;;0.40;0.40;;;14.50;48.70;15.00;96797.00;;;;5362950;26;20258;-58
2024/04/17 08:53:28;;;;;;;0.37;0.37;;;14.50;48.70;15.00;96791.00;;;;5381868;26;20246;-58
2024/04/17 08:55:55;;;;;;;0.40;0.40;;;14.50;48.70;14.90;96788.00;;;;5366810;26;20286;-58
2024/04/17 08:58:23;;;;;;;0.20;0.20;;;14.50;48.80;14.90;96795.00;;;;5347325;26;20287;-58
2024/04/17 09:00:51;;;;;;;0.30;0.30;;;14.50;48.80;14.90;96795.00;;;;5346262;26;20300;-58
2024/04/17 09:03:25;;;;;;;0.47;0.47;;;14.40;48.70;14.90;96799.00;;;;5346804;26;20293;-58
2024/04/17 09:05:53;;;;;;;0.40;0.40;;;14.50;48.90;14.90;96797.00;;;;5380284;26;20277;-58
2024/04/17 09:08:22;;;;;;;0.30;0.30;;;14.40;48.80;14.90;96792.00;;;;5381666;26;20646;-58
2024/04/17 09:10:53;;;;;;;0.50;0.50;;;14.40;48.80;14.90;96804.00;;;;5367149;26;20248;-58
2024/04/17 09:13:22;;;;;;;0.37;0.37;;;14.40;48.80;14.90;96808.00;;;;5346839;26;20236;-57
2024/04/17 09:15:48;;;;;;;0.30;0.30;;;14.40;48.80;14.90;96806.00;;;;5346781;26;20300;-57
2024/04/17 09:18:16;;;;;;;0.40;0.40;;;14.40;48.80;14.90;96805.00;;;;5347036;26;20328;-57
2024/04/17 09:20:42;;;;;;;0.30;0.30;;;14.40;48.90;14.80;96799.00;;;;5345810;26;20302;-58
2024/04/17 09:23:12;;;;;;;0.30;0.30;;;14.40;48.90;14.90;96807.00;;;;5346479;26;20273;-58
2024/04/17 09:25:38;;;;;;;0.30;0.30;;;14.40;48.90;14.80;96807.00;;;;5346715;26;20238;-58
2024/04/17 09:28:12;;;;;;;0.30;0.30;;;14.40;48.90;14.90;96806.00;;;;5346470;26;20294;-58
2024/04/17 09:30:41;;;;;;;0.30;0.30;;;14.30;48.90;14.80;96801.00;;;;5345461;26;20299;-58
2024/04/17 09:33:12;;;;;;;0.40;0.30;;;14.40;48.90;14.80;96799.00;;;;5346211;26;20250;-58
2024/04/17 09:35:38;;;;;;;0.30;0.30;;;14.40;48.90;14.80;96800.00;;;;5346686;26;20309;-58
2024/04/17 09:38:15;;;;;;;0.40;0.40;;;14.40;48.90;14.80;96811.00;;;;5346501;26;20234;-58
2024/04/17 09:40:43;;;;;;;0.40;0.40;;;14.40;48.90;14.80;96807.00;;;;5356195;26;20245;-57
2024/04/17 09:43:25;;;;;;;0.50;0.30;;;14.40;48.90;14.80;96796.00;;;;5381277;26;20234;-58
2024/04/17 09:45:58;;;;;;;0.57;0.43;;;14.40;48.90;14.80;96802.00;;;;5381498;26;20230;-58
2024/04/17 09:48:30;;;;;;;0.40;0.40;;;14.40;48.90;14.80;96804.00;;;;5380880;26;20240;-58
2024/04/17 09:51:02;;;;;;;0.40;0.40;;;14.30;48.90;14.80;96798.00;;;;5360996;26;20731;-58
2024/04/17 09:53:34;;;;;;;0.47;0.40;;;14.40;48.90;14.80;96793.00;;;;5346180;26;20712;-57
2024/04/17 09:56:02;;;;;;;0.50;0.50;;;14.40;48.90;14.80;96798.00;;;;5346313;26;20577;-57
2024/04/17 09:58:35;;;;;;;0.40;0.40;;;14.40;48.90;14.80;96789.00;;;;5345088;26;20244;-58
2024/04/17 10:01:03;;;;;;;0.33;0.33;;;14.40;48.90;14.80;96794.00;;;;5346403;26;20323;-58
2024/04/17 10:03:33;;;;;;;0.40;0.40;;;14.40;48.90;14.90;96788.00;;;;5346861;26;20333;-58
2024/04/17 10:06:00;;;;;;;0.33;0.33;;;14.40;48.90;14.80;96787.00;;;;5346078;26;20226;-58
2024/04/17 10:08:32;;;;;;;0.37;0.37;;;14.40;48.90;14.90;96785.00;;;;5345555;26;20664;-58
2024/04/17 10:10:59;;;;;;;1.30;0.50;;;14.40;48.90;14.90;96786.00;;;;5359691;26;20247;-57
2024/04/17 10:13:28;;;;;;;0.43;0.43;;;14.40;48.80;14.90;96782.00;;;;5380630;26;20720;-57
2024/04/17 10:15:58;;;;;;;0.30;0.30;;;14.40;48.80;14.90;96785.00;;;;5380773;26;20361;-57
2024/04/17 10:18:27;;;;;;;0.30;0.30;;;14.40;48.80;14.90;96775.00;;;;5376219;26;20247;-58
2024/04/17 10:20:55;;;;;;;0.30;0.30;;;14.40;48.80;14.90;96784.00;;;;5345612;26;20846;-58
2024/04/17 10:23:28;;;;;;;0.50;0.50;;;14.40;48.80;14.90;96782.00;;;;5345638;26;20336;-58
2024/04/17 10:25:58;;;;;;;0.53;0.53;;;14.40;48.80;14.90;96781.00;;;;5359722;26;20244;-58
2024/04/17 10:28:28;;;;;;;0.33;0.33;;;14.40;48.80;14.90;96778.00;;;;5380438;26;20234;-58
2024/04/17 10:31:04;;;;;;;0.30;0.30;;;14.40;48.80;14.90;96786.00;;;;5380606;26;20245;-58
2024/04/17 10:33:34;;;;;;;0.50;0.50;;;14.40;48.80;14.90;96780.00;;;;5380424;26;20234;-58
2024/04/17 10:36:08;;;;;;;0.43;0.43;;;14.40;48.80;14.90;96778.00;;;;5359333;26;20572;-58
2024/04/17 10:38:37;;;;;;;0.40;0.40;;;14.40;48.80;14.90;96779.00;;;;5344592;26;20294;-58
2024/04/17 10:41:06;;;;;;;0.40;0.40;;;14.40;48.80;14.90;96777.00;;;;5361801;26;20242;-58
2024/04/17 10:43:34;;;;;;;0.40;0.40;;;14.40;48.80;14.90;96781.00;;;;5380441;26;20232;-58
2024/04/17 10:46:11;;;;;;;0.40;0.40;;;14.40;48.80;14.90;96774.00;;;;5380478;26;20627;-58
2024/04/17 10:48:46;;;;;;;0.40;0.40;;;14.40;48.80;14.90;96775.00;;;;5379407;26;20287;-58
2024/04/17 10:51:17;;;;;;;0.53;0.53;;;14.40;48.80;14.90;96776.00;;;;5378849;26;20573;-58
2024/04/17 10:53:45;;;;;;;0.40;0.40;;;14.40;48.80;14.90;96778.00;;;;5380389;26;20272;-58
2024/04/17 10:56:14;;;;;;;0.40;0.40;;;14.40;48.80;14.90;96781.00;;;;5377705;26;20294;-58
2024/04/17 10:58:41;;;;;;;0.50;0.50;;;14.40;48.80;14.90;96780.00;;;;5379529;26;20304;-58